Time;durP1;ratioP1;P1;durP2;ratioP2;P2;SDS_P1;SDS_P2;PMS_P1;PMS_P2;Temp;Humidity;BMP_temperature;BMP_pressure;BME280_temperature;BME280_humidity;BME280_pressure;Samples;Min_cycle;Max_cycle;Signal;HPM_P1;HPM_P2
2023/04/26 00:01:05;;;;;;;12.55;3.65;;;;;;;21.07;46.22;101080.72;4980455;28;20357;-56
2023/04/26 00:03:32;;;;;;;18.05;4.25;;;;;;;21.11;46.36;101075.56;4979708;28;20033;-56
2023/04/26 00:06:04;;;;;;;14.55;4.70;;;;;;;20.86;47.19;101084.50;4998171;28;20035;-56
2023/04/26 00:08:31;;;;;;;16.45;3.83;;;;;;;20.96;47.12;101078.25;4985274;28;20061;-57
2023/04/26 00:10:57;;;;;;;9.93;3.90;;;;;;;21.26;47.36;101082.91;4991332;28;20434;-50
2023/04/26 00:13:23;;;;;;;17.33;3.78;;;;;;;20.88;47.86;101084.25;4973289;28;20386;-52
2023/04/26 00:15:49;;;;;;;24.25;7.38;;;;;;;20.68;47.70;101088.53;4980424;28;20082;-51
2023/04/26 00:18:16;;;;;;;15.65;4.60;;;;;;;20.28;49.10;101089.97;4974050;28;20042;-53
2023/04/26 00:20:42;;;;;;;27.45;7.72;;;;;;;20.36;48.64;101090.53;4982267;28;20031;-51
2023/04/26 00:23:09;;;;;;;13.10;3.92;;;;;;;20.17;48.95;101085.56;4992184;28;20038;-56
2023/04/26 00:25:37;;;;;;;16.48;4.78;;;;;;;20.24;49.05;101093.47;4990686;28;20509;-56
2023/04/26 00:28:04;;;;;;;25.63;5.35;;;;;;;20.02;49.64;101080.03;4975895;28;20478;-51
2023/04/26 00:30:31;;;;;;;18.15;4.57;;;;;;;20.06;50.18;101085.78;4992084;28;20076;-53
2023/04/26 00:32:57;;;;;;;16.13;4.40;;;;;;;19.75;50.56;101085.56;4991462;28;20113;-54
2023/04/26 00:35:23;;;;;;;16.33;4.65;;;;;;;19.74;50.33;101084.75;4991049;28;20023;-56
2023/04/26 00:37:50;;;;;;;16.15;4.80;;;;;;;19.96;50.84;101090.06;4989373;28;20490;-56
2023/04/26 00:40:16;;;;;;;12.88;4.45;;;;;;;19.86;51.10;101094.63;4987998;28;20030;-57
2023/04/26 00:42:43;;;;;;;18.67;4.65;;;;;;;19.09;51.02;101093.94;4991839;28;20113;-57
2023/04/26 00:45:09;;;;;;;13.18;3.92;;;;;;;19.22;52.04;101088.13;4992460;28;20106;-56
2023/04/26 00:47:36;;;;;;;19.10;4.07;;;;;;;19.44;52.02;101103.50;4989968;28;20113;-56
2023/04/26 00:50:03;;;;;;;22.80;4.75;;;;;;;19.07;52.58;101096.09;4991009;28;20033;-57
2023/04/26 00:52:30;;;;;;;17.17;4.57;;;;;;;19.01;52.23;101091.72;4992987;28;20027;-56
2023/04/26 00:54:57;;;;;;;16.40;4.20;;;;;;;19.05;51.41;101092.03;4990666;28;20106;-57
2023/04/26 00:57:23;;;;;;;17.95;4.20;;;;;;;18.84;52.98;101091.81;4973388;28;20030;-57
2023/04/26 00:59:50;;;;;;;14.85;4.22;;;;;;;18.90;52.30;101093.50;4984940;28;20034;-57
2023/04/26 01:02:16;;;;;;;21.70;5.75;;;;;;;18.76;53.19;101094.94;4989460;28;20038;-57
2023/04/26 01:04:44;;;;;;;22.75;5.55;;;;;;;18.67;53.71;101100.03;4975994;28;20115;-56
2023/04/26 01:07:10;;;;;;;17.10;4.80;;;;;;;18.46;53.87;101098.09;4973896;28;20161;-57
2023/04/26 01:09:37;;;;;;;21.08;5.47;;;;;;;18.17;53.95;101100.16;4983919;28;20027;-57
2023/04/26 01:12:03;;;;;;;19.65;4.95;;;;;;;18.25;53.82;101102.44;4973094;28;20145;-56
2023/04/26 01:14:31;;;;;;;17.98;4.97;;;;;;;18.03;54.76;101107.81;4986530;28;20026;-56
2023/04/26 01:16:57;;;;;;;14.38;3.97;;;;;;;18.41;54.63;101108.88;4983921;28;20034;-58
2023/04/26 01:19:24;;;;;;;14.20;4.20;;;;;;;18.16;55.69;101106.66;4992337;28;20033;-58
2023/04/26 01:21:50;;;;;;;21.55;5.55;;;;;;;17.91;55.67;101107.91;4981224;28;20439;-56
2023/04/26 01:24:17;;;;;;;18.17;5.55;;;;;;;18.01;55.59;101109.97;4985008;28;20033;-57
2023/04/26 01:26:45;;;;;;;21.95;4.57;;;;;;;18.08;55.90;101105.19;4972272;28;20027;-56
2023/04/26 01:29:18;;;;;;;16.42;5.28;;;;;;;17.93;55.93;101111.22;4988148;28;20046;-55
2023/04/26 01:31:45;;;;;;;16.10;4.32;;;;;;;18.01;55.35;101106.44;4991834;28;20033;-56
2023/04/26 01:34:11;;;;;;;14.70;4.03;;;;;;;17.90;55.93;101106.28;4984239;28;20494;-58
2023/04/26 01:36:37;;;;;;;12.25;3.90;;;;;;;18.01;55.91;101109.97;4972899;28;20496;-58
2023/04/26 01:39:04;;;;;;;20.05;4.85;;;;;;;17.67;56.17;101112.66;4990770;28;20042;-57
2023/04/26 01:41:32;;;;;;;20.67;5.38;;;;;;;17.56;56.62;101112.75;4992274;28;20026;-57
2023/04/26 01:43:59;;;;;;;20.77;5.35;;;;;;;17.08;58.08;101117.59;4991936;28;20643;-57
2023/04/26 01:46:25;;;;;;;18.02;5.18;;;;;;;16.99;58.55;101113.66;4983818;28;20578;-57
2023/04/26 01:48:52;;;;;;;19.38;5.10;;;;;;;17.01;58.64;101119.63;4984215;28;20038;-56
2023/04/26 01:51:18;;;;;;;17.02;4.50;;;;;;;17.10;58.47;101112.78;4992811;28;20032;-56
2023/04/26 01:53:44;;;;;;;20.48;4.80;;;;;;;16.66;59.00;101121.59;4990790;28;20058;-54
2023/04/26 01:56:10;;;;;;;17.05;4.40;;;;;;;16.72;59.93;101121.50;4988523;28;20121;-56
2023/04/26 01:58:37;;;;;;;22.75;5.40;;;;;;;16.70;60.19;101115.47;4991903;28;20113;-57
2023/04/26 02:01:08;;;;;;;15.93;4.65;;;;;;;16.30;61.42;101120.84;4974490;28;20114;-57
2023/04/26 02:03:35;;;;;;;22.15;4.55;;;;;;;16.68;61.29;101125.72;4990174;28;20042;-56
2023/04/26 02:06:02;;;;;;;24.52;4.78;;;;;;;16.48;61.85;101130.69;4989174;28;20031;-58
2023/04/26 02:08:28;;;;;;;21.02;4.60;;;;;;;16.34;62.29;101139.06;4989988;28;20026;-52
2023/04/26 02:10:55;;;;;;;24.98;6.03;;;;;;;16.21;62.79;101142.00;4991615;28;20034;-54
2023/04/26 02:13:21;;;;;;;19.15;5.15;;;;;;;15.94;63.86;101144.38;4989982;28;20022;-53
2023/04/26 02:15:51;;;;;;;23.30;5.00;;;;;;;15.87;64.13;101138.22;4991633;28;20557;-53
2023/04/26 02:18:20;;;;;;;17.23;4.95;;;;;;;15.85;64.67;101151.16;4991802;28;20038;-54
2023/04/26 02:20:47;;;;;;;24.77;4.95;;;;;;;15.63;64.88;101148.19;4992151;28;20041;-53
2023/04/26 02:23:13;;;;;;;17.23;4.53;;;;;;;15.64;65.20;101154.41;4980830;28;20061;-53
2023/04/26 02:25:41;;;;;;;25.40;5.35;;;;;;;15.26;66.50;101155.56;4972080;28;20035;-52
2023/04/26 02:28:07;;;;;;;25.48;5.57;;;;;;;15.04;67.46;101160.63;4974692;28;20081;-53
2023/04/26 02:30:33;;;;;;;25.00;5.35;;;;;;;15.11;67.35;101155.16;4991626;28;20022;-54
2023/04/26 02:32:59;;;;;;;20.98;4.80;;;;;;;14.46;69.28;101158.41;4991782;28;20022;-54
2023/04/26 02:35:26;;;;;;;17.30;5.68;;;;;;;14.54;69.23;101155.41;4991601;28;20033;-54
2023/04/26 02:37:52;;;;;;;27.17;5.82;;;;;;;14.64;68.87;101154.91;4991504;28;20034;-54
2023/04/26 02:40:19;;;;;;;27.67;5.82;;;;;;;14.21;69.97;101155.75;4991763;28;20033;-53
2023/04/26 02:42:45;;;;;;;25.55;5.55;;;;;;;14.43;69.35;101154.25;4995049;28;20110;-53
2023/04/26 02:45:12;;;;;;;15.75;4.55;;;;;;;14.11;70.45;101158.97;4990660;28;20045;-52
2023/04/26 02:47:38;;;;;;;24.30;5.57;;;;;;;13.98;70.78;101159.88;4988571;28;20036;-52
2023/04/26 02:50:09;;;;;;;22.35;5.72;;;;;;;13.90;71.46;101162.88;4986359;28;20122;-49
2023/04/26 02:52:36;;;;;;;19.95;5.07;;;;;;;13.97;71.02;101160.94;4995418;28;20061;-51
2023/04/26 02:55:03;;;;;;;22.25;4.90;;;;;;;13.85;71.50;101162.69;4994868;28;20018;-50
2023/04/26 02:57:30;;;;;;;19.67;5.18;;;;;;;13.81;71.59;101169.56;4990355;28;20507;-51
2023/04/26 02:59:57;;;;;;;18.08;4.88;;;;;;;13.77;71.45;101171.06;4994592;28;20494;-49
2023/04/26 03:02:24;;;;;;;27.23;5.60;;;;;;;13.62;72.55;101168.66;4994450;28;20178;-52
2023/04/26 03:04:50;;;;;;;23.63;5.85;;;;;;;13.48;73.49;101172.47;4994286;28;20061;-50
2023/04/26 03:07:16;;;;;;;26.30;5.70;;;;;;;13.45;73.45;101186.38;4994676;28;20117;-50
2023/04/26 03:09:43;;;;;;;30.50;6.32;;;;;;;13.44;73.25;101185.56;4980910;28;20179;-49
2023/04/26 03:12:09;;;;;;;24.52;4.65;;;;;;;13.55;72.68;101184.03;4994748;28;20582;-50
2023/04/26 03:14:35;;;;;;;21.33;5.95;;;;;;;13.55;73.16;101183.19;4993967;28;20026;-48
2023/04/26 03:17:02;;;;;;;26.58;5.85;;;;;;;13.27;74.37;101187.09;4992464;28;20083;-47
2023/04/26 03:19:28;;;;;;;27.45;5.25;;;;;;;13.27;74.55;101192.50;4977232;28;20034;-51
2023/04/26 03:21:55;;;;;;;24.20;6.18;;;;;;;13.20;74.90;101188.94;4981075;28;20037;-51
2023/04/26 03:24:22;;;;;;;29.83;6.47;;;;;;;12.92;76.42;101187.41;4985620;28;20073;-50
2023/04/26 03:26:48;;;;;;;22.05;5.53;;;;;;;12.85;76.87;101192.00;4984287;28;20034;-53
2023/04/26 03:29:16;;;;;;;26.30;6.32;;;;;;;12.76;77.10;101190.59;4994691;28;20101;-52
2023/04/26 03:31:42;;;;;;;35.85;6.45;;;;;;;12.66;77.71;101191.03;4994376;28;20031;-51
2023/04/26 03:34:08;;;;;;;28.23;6.65;;;;;;;12.56;77.97;101203.25;4994276;28;20026;-52
2023/04/26 03:36:35;;;;;;;27.33;6.13;;;;;;;12.64;77.82;101203.03;4991325;28;20244;-49
2023/04/26 03:39:01;;;;;;;33.45;6.50;;;;;;;12.62;77.91;101202.41;5020376;23;20734;-48
2023/04/26 03:41:27;;;;;;;29.40;6.22;;;;;;;12.56;78.34;101203.25;5028198;28;20040;-55
2023/04/26 03:43:53;;;;;;;28.13;5.88;;;;;;;12.30;79.94;101204.94;5017368;28;20052;-52
2023/04/26 03:46:19;;;;;;;28.17;7.55;;;;;;;12.46;79.25;101213.59;5029593;28;20068;-51
2023/04/26 03:48:46;;;;;;;34.63;6.90;;;;;;;12.47;78.97;101217.94;5022303;28;20030;-53
2023/04/26 03:51:12;;;;;;;32.45;7.50;;;;;;;12.34;79.07;101216.91;5013469;28;20026;-53
2023/04/26 03:53:38;;;;;;;32.28;6.40;;;;;;;12.33;79.74;101217.97;5022969;28;20056;-52
2023/04/26 03:56:05;;;;;;;30.58;7.90;;;;;;;12.27;79.61;101226.84;5013631;28;20399;-53
2023/04/26 03:58:31;;;;;;;28.52;6.65;;;;;;;12.06;80.90;101224.38;5013425;28;20105;-53
2023/04/26 04:00:57;;;;;;;35.45;7.20;;;;;;;12.22;80.24;101221.28;5013621;28;20390;-49
2023/04/26 04:03:23;;;;;;;36.17;7.30;;;;;;;12.20;80.29;101226.00;5013247;28;20099;-55
2023/04/26 04:05:50;;;;;;;23.77;6.05;;;;;;;12.14;80.62;101229.53;5015747;28;20470;-52
2023/04/26 04:08:16;;;;;;;28.75;7.28;;;;;;;11.99;81.28;101236.94;4995885;28;20034;-50
2023/04/26 04:10:44;;;;;;;27.23;6.75;;;;;;;12.12;80.72;101237.78;5020767;28;20030;-50
2023/04/26 04:13:10;;;;;;;30.83;6.10;;;;;;;12.07;80.81;101234.88;5023399;28;20145;-51
2023/04/26 04:15:36;;;;;;;27.98;6.28;;;;;;;12.07;81.26;101234.06;5012919;28;20025;-51
2023/04/26 04:18:03;;;;;;;23.35;5.90;;;;;;;12.15;80.58;101236.53;4995381;28;20401;-48
2023/04/26 04:20:30;;;;;;;21.15;5.50;;;;;;;12.24;79.79;101248.72;5013319;28;20032;-51
2023/04/26 04:22:57;;;;;;;25.15;6.57;;;;;;;12.11;81.02;101246.06;5013114;28;20026;-52
2023/04/26 04:25:24;;;;;;;28.35;6.32;;;;;;;12.17;80.64;101241.72;5012748;28;20053;-52
2023/04/26 04:27:52;;;;;;;31.52;6.30;;;;;;;12.18;80.28;101246.88;5012553;28;20026;-48
2023/04/26 04:30:18;;;;;;;26.73;6.03;;;;;;;12.14;80.51;101248.31;5013061;28;20453;-49
2023/04/26 04:32:45;;;;;;;31.38;7.22;;;;;;;12.13;80.67;101249.34;5012760;28;20039;-49
2023/04/26 04:35:12;;;;;;;21.33;6.32;;;;;;;12.02;81.10;101244.59;5012672;28;20394;-48
2023/04/26 04:37:38;;;;;;;21.83;5.60;;;;;;;12.09;80.60;101253.47;5013260;28;20045;-51
2023/04/26 04:40:07;;;;;;;30.95;7.30;;;;;;;11.85;81.73;101257.56;5027626;28;20050;-49
2023/04/26 04:42:34;;;;;;;32.42;6.78;;;;;;;11.87;81.35;101255.50;5012573;28;20065;-52
2023/04/26 04:45:01;;;;;;;23.42;5.90;;;;;;;11.89;81.70;101253.47;5012208;28;20030;-51
2023/04/26 04:47:27;;;;;;;22.02;5.72;;;;;;;11.88;82.08;101255.31;5012741;28;20025;-53
2023/04/26 04:49:53;;;;;;;29.65;6.22;;;;;;;11.93;81.68;101254.69;5024441;28;20026;-53
2023/04/26 04:52:20;;;;;;;22.95;5.88;;;;;;;12.01;81.52;101254.50;5026169;28;20018;-52
2023/04/26 04:54:47;;;;;;;27.38;5.80;;;;;;;12.13;80.92;101250.16;5019337;28;20107;-53
2023/04/26 04:57:15;;;;;;;29.80;6.97;;;;;;;11.83;82.29;101254.28;5030343;28;20033;-53
2023/04/26 04:59:42;;;;;;;35.92;7.35;;;;;;;11.89;82.17;101256.16;5027195;28;20036;-51
2023/04/26 05:02:08;;;;;;;23.08;6.05;;;;;;;11.70;83.16;101265.75;5020925;28;20394;-51
2023/04/26 05:04:37;;;;;;;29.25;7.22;;;;;;;11.76;82.71;101258.75;5013735;28;20036;-49
2023/04/26 05:07:04;;;;;;;29.85;6.25;;;;;;;11.91;82.29;101263.97;5025982;28;20083;-50
2023/04/26 05:09:30;;;;;;;27.50;6.60;;;;;;;11.76;82.57;101269.47;5031065;28;20060;-51
2023/04/26 05:11:57;;;;;;;30.23;6.45;;;;;;;11.67;82.68;101266.19;5012336;28;20033;-52
2023/04/26 05:14:23;;;;;;;26.02;5.90;;;;;;;11.72;82.17;101263.72;5011485;28;20025;-50
2023/04/26 05:16:49;;;;;;;26.10;5.90;;;;;;;11.77;81.80;101263.94;5012032;28;20046;-48
2023/04/26 05:19:16;;;;;;;26.27;5.40;;;;;;;11.88;81.24;101263.38;5011773;28;20048;-51
2023/04/26 05:21:42;;;;;;;24.92;6.35;;;;;;;11.75;81.90;101257.94;5012840;28;20097;-51
2023/04/26 05:24:08;;;;;;;23.83;5.40;;;;;;;11.87;81.36;101263.53;5031329;28;20140;-51
2023/04/26 05:26:35;;;;;;;22.23;5.63;;;;;;;11.91;80.82;101272.03;5020947;23;20073;-53
2023/04/26 05:29:01;;;;;;;31.27;6.40;;;;;;;11.89;81.06;101275.75;5011672;28;20037;-51
2023/04/26 05:31:27;;;;;;;24.27;5.22;;;;;;;11.95;80.75;101278.63;5012004;28;20053;-49
2023/04/26 05:33:54;;;;;;;32.90;6.60;;;;;;;11.82;81.28;101271.38;5011684;28;20164;-51
2023/04/26 05:36:20;;;;;;;24.80;5.95;;;;;;;11.95;80.81;101276.78;5012323;28;20064;-51
2023/04/26 05:38:47;;;;;;;28.30;5.70;;;;;;;11.93;80.63;101269.94;5012365;28;20100;-51
2023/04/26 05:41:13;;;;;;;29.92;6.03;;;;;;;12.03;80.25;101270.38;5012103;28;20065;-52
2023/04/26 05:43:40;;;;;;;28.65;5.72;;;;;;;11.92;80.88;101274.50;5011780;28;20026;-53
2023/04/26 05:46:06;;;;;;;31.75;6.45;;;;;;;11.98;80.74;101272.84;5011444;28;20033;-52
2023/04/26 05:48:32;;;;;;;23.42;5.93;;;;;;;12.03;79.81;101273.06;5005489;28;20030;-49
2023/04/26 05:50:59;;;;;;;25.88;6.55;;;;;;;11.99;80.64;101285.22;4991953;28;20018;-51
2023/04/26 05:53:25;;;;;;;36.72;7.38;;;;;;;11.86;81.44;101275.31;5004499;28;20033;-51
2023/04/26 05:55:51;;;;;;;26.70;5.95;;;;;;;11.96;80.72;101282.97;5011610;28;20026;-51
2023/04/26 05:58:17;;;;;;;30.85;6.10;;;;;;;11.87;81.28;101293.88;5011483;28;20034;-49
2023/04/26 06:00:44;;;;;;;22.45;5.65;;;;;;;11.87;81.09;101291.19;5011597;28;20107;-50
2023/04/26 06:03:10;;;;;;;26.73;6.13;;;;;;;11.93;81.28;101289.56;5010978;28;20116;-50
2023/04/26 06:05:40;;;;;;;29.58;6.30;;;;;;;11.91;81.06;101294.31;5010199;28;20125;-49
2023/04/26 06:08:06;;;;;;;28.15;6.65;;;;;;;11.80;82.03;101300.25;5004644;28;20034;-51
2023/04/26 06:10:34;;;;;;;28.50;7.40;;;;;;;11.61;82.75;101297.31;5003230;28;20113;-48
2023/04/26 06:13:01;;;;;;;30.67;5.82;;;;;;;11.51;83.54;101301.41;5011573;28;20506;-48
2023/04/26 06:15:27;;;;;;;29.80;6.50;;;;;;;11.68;82.88;101289.28;5011788;28;20399;-47
2023/04/26 06:17:53;;;;;;;23.48;5.70;;;;;;;11.65;83.16;101292.34;5014126;28;20029;-49
2023/04/26 06:20:20;;;;;;;24.00;6.88;;;;;;;11.64;82.96;101290.69;5014784;28;20030;-49
2023/04/26 06:22:46;;;;;;;26.60;6.38;;;;;;;11.57;83.17;101293.38;5015133;28;20041;-49
2023/04/26 06:25:12;;;;;;;34.55;7.30;;;;;;;11.59;83.52;101293.16;4997110;28;20461;-50
2023/04/26 06:27:38;;;;;;;30.40;6.00;;;;;;;11.62;83.54;101290.09;5014705;28;20117;-52
2023/04/26 06:30:06;;;;;;;39.17;7.18;;;;;;;11.50;84.56;101294.38;5015103;28;20084;-52
2023/04/26 06:32:33;;;;;;;30.17;7.30;;;;;;;11.33;85.19;101280.50;5015213;28;20033;-51
2023/04/26 06:34:59;;;;;;;26.85;6.43;;;;;;;11.21;85.42;101292.78;5014502;28;20026;-52
2023/04/26 06:37:25;;;;;;;28.17;6.63;;;;;;;11.31;85.26;101288.72;5014712;28;20057;-50
2023/04/26 06:39:51;;;;;;;22.88;5.75;;;;;;;11.32;85.33;101289.56;5015021;28;20475;-49
2023/04/26 06:42:17;;;;;;;26.08;6.53;;;;;;;11.41;84.58;101293.72;5014795;28;20029;-52
2023/04/26 06:44:44;;;;;;;36.95;7.10;;;;;;;11.45;84.86;101296.84;5014312;28;20049;-51
2023/04/26 06:47:10;;;;;;;27.08;6.97;;;;;;;11.38;85.37;101294.09;5015066;28;20026;-50
2023/04/26 06:49:36;;;;;;;34.92;7.45;;;;;;;11.35;85.42;101289.97;4999731;28;20034;-49
2023/04/26 06:52:05;;;;;;;29.25;5.68;;;;;;;11.44;84.51;101289.78;4995313;28;20034;-52
2023/04/26 06:54:32;;;;;;;26.42;5.40;;;;;;;11.47;84.18;101287.56;5003835;28;20040;-49
2023/04/26 06:56:59;;;;;;;28.88;5.80;;;;;;;11.49;83.98;101290.03;5014362;28;20021;-52
2023/04/26 06:59:25;;;;;;;26.90;6.38;;;;;;;11.53;83.95;101286.75;5014809;28;20077;-52
2023/04/26 07:01:53;;;;;;;27.35;6.95;;;;;;;11.59;83.72;101288.63;5014179;28;20386;-51
2023/04/26 07:04:19;;;;;;;28.85;6.70;;;;;;;11.55;83.75;101291.94;5013997;28;20052;-51
2023/04/26 07:06:46;;;;;;;24.25;6.32;;;;;;;11.46;84.16;101293.94;5014545;28;20037;-50
2023/04/26 07:09:12;;;;;;;25.17;6.53;;;;;;;11.53;83.26;101294.78;5014250;28;20029;-48
2023/04/26 07:11:38;;;;;;;31.05;6.53;;;;;;;11.52;84.00;101292.31;5013853;28;20029;-49
2023/04/26 07:14:05;;;;;;;30.20;5.90;;;;;;;11.58;83.46;101296.88;5014139;28;20025;-51
2023/04/26 07:16:31;;;;;;;34.78;6.82;;;;;;;11.53;83.57;101296.66;5013945;28;20032;-52
2023/04/26 07:18:57;;;;;;;24.60;6.03;;;;;;;11.69;82.78;101290.94;5012768;28;20088;-51
2023/04/26 07:21:25;;;;;;;37.45;7.18;;;;;;;11.61;83.27;101291.13;5012598;28;20132;-50
2023/04/26 07:23:55;;;;;;;23.42;6.40;;;;;;;11.60;83.33;101298.34;5011483;28;20068;-51
2023/04/26 07:26:22;;;;;;;18.95;5.60;;;;;;;11.64;83.07;101290.69;5025610;23;20563;-50
2023/04/26 07:28:51;;;;;;;31.17;6.15;;;;;;;11.63;83.11;101299.78;5019876;28;20033;-52
2023/04/26 07:31:17;;;;;;;26.52;6.10;;;;;;;11.58;83.09;101294.19;5006036;28;20437;-49
2023/04/26 07:33:44;;;;;;;27.20;5.88;;;;;;;11.63;83.48;101289.06;5013132;28;20490;-50
2023/04/26 07:36:10;;;;;;;29.60;6.13;;;;;;;11.58;83.25;101292.34;5013663;28;20026;-50
2023/04/26 07:38:37;;;;;;;36.90;6.68;;;;;;;11.53;83.72;101302.00;4998788;28;20084;-48
2023/04/26 07:41:03;;;;;;;25.17;7.22;;;;;;;11.40;84.47;101304.66;4994082;28;20030;-49
2023/04/26 07:43:30;;;;;;;24.25;5.53;;;;;;;11.53;84.00;101296.66;4994014;28;20056;-50
2023/04/26 07:46:02;;;;;;;28.77;6.68;;;;;;;11.49;83.87;101290.03;5014469;28;20032;-47
2023/04/26 07:48:29;;;;;;;35.83;6.50;;;;;;;11.46;84.42;101298.47;5007327;28;20084;-51
2023/04/26 07:50:55;;;;;;;32.22;6.93;;;;;;;11.26;85.50;101299.22;4993814;28;20053;-48
2023/04/26 07:53:22;;;;;;;26.83;6.85;;;;;;;11.33;85.29;101299.28;5013251;28;20026;-50
2023/04/26 07:55:53;;;;;;;28.90;6.78;;;;;;;11.38;84.98;101299.47;5013065;28;20089;-51
2023/04/26 07:58:20;;;;;;;28.80;6.53;;;;;;;11.38;85.02;101283.38;5012983;28;20026;-48
2023/04/26 08:00:46;;;;;;;33.63;6.60;;;;;;;11.47;84.69;101286.72;5013291;28;20497;-48
2023/04/26 08:03:18;;;;;;;34.53;7.55;;;;;;;11.35;85.19;101287.31;5012985;28;20076;-48
2023/04/26 08:05:44;;;;;;;32.25;5.88;;;;;;;11.27;85.59;101292.84;5012809;28;20041;-49
2023/04/26 08:08:11;;;;;;;34.92;7.28;;;;;;;11.26;85.38;101291.19;5011692;28;20112;-48
2023/04/26 08:10:40;;;;;;;39.97;7.32;;;;;;;11.24;86.19;101292.41;5013210;28;20106;-49
2023/04/26 08:13:06;;;;;;;33.88;6.80;;;;;;;11.16;86.55;101292.56;5012754;28;20034;-48
2023/04/26 08:15:33;;;;;;;41.90;7.13;;;;;;;11.17;86.51;101295.06;5013456;28;20426;-48
2023/04/26 08:17:59;;;;;;;27.00;6.53;;;;;;;11.19;86.11;101305.56;5012820;28;20026;-52
2023/04/26 08:20:25;;;;;;;26.98;7.05;;;;;;;11.10;86.68;101296.88;5028507;28;20045;-48
2023/04/26 08:22:56;;;;;;;21.55;5.90;;;;;;;11.10;86.65;101299.53;5021206;28;20022;-51
2023/04/26 08:25:23;;;;;;;32.75;7.20;;;;;;;11.08;86.61;101297.06;5000477;28;20562;-48
2023/04/26 08:27:49;;;;;;;25.77;6.43;;;;;;;11.11;86.42;101298.53;5013135;28;20030;-48
2023/04/26 08:30:16;;;;;;;34.38;7.95;;;;;;;11.13;87.03;101301.84;5013187;28;20072;-49
2023/04/26 08:32:42;;;;;;;37.67;8.15;;;;;;;10.96;88.50;101303.19;5012769;28;20279;-52
2023/04/26 08:35:09;;;;;;;38.63;8.07;;;;;;;11.07;87.99;101303.47;5014532;28;20485;-52
2023/04/26 08:37:36;;;;;;;29.48;6.88;;;;;;;11.13;87.18;101307.19;5030554;28;20033;-48
2023/04/26 08:40:09;;;;;;;27.75;7.10;;;;;;;11.07;87.16;101300.78;5029723;28;20036;-49
2023/04/26 08:42:41;;;;;;;37.25;7.22;;;;;;;11.20;86.86;101297.34;5018236;28;20513;-51
2023/04/26 08:45:10;;;;;;;29.63;6.25;;;;;;;11.13;87.35;101298.34;5010316;28;20110;-47
2023/04/26 08:47:45;;;;;;;27.90;7.38;;;;;;;10.97;88.67;101302.97;5012239;28;20053;-49
2023/04/26 08:50:13;;;;;;;40.38;8.48;;;;;;;10.93;88.70;101298.22;5012762;28;20036;-50
2023/04/26 08:52:41;;;;;;;31.17;7.38;;;;;;;10.98;88.44;101287.75;5013369;28;20572;-47
2023/04/26 08:55:15;;;;;;;33.35;7.10;;;;;;;10.96;88.48;101295.16;5031911;28;20537;-51
2023/04/26 08:57:45;;;;;;;31.23;8.27;;;;;;;10.94;88.24;101292.69;5031935;28;20040;-50
2023/04/26 09:00:12;;;;;;;35.35;7.78;;;;;;;11.00;88.13;101294.56;5020445;28;20096;-49
2023/04/26 09:02:46;;;;;;;30.60;7.90;;;;;;;10.84;88.76;101294.88;5011919;28;20249;-51
2023/04/26 09:05:12;;;;;;;36.03;8.02;;;;;;;10.97;88.07;101288.75;5012173;28;20061;-49
2023/04/26 09:07:46;;;;;;;37.58;7.47;;;;;;;10.90;88.52;101287.91;5012369;28;20418;-52
2023/04/26 09:10:18;;;;;;;31.38;7.00;;;;;;;10.97;87.90;101286.09;5012877;28;20029;-49
2023/04/26 09:12:44;;;;;;;35.40;6.65;;;;;;;11.13;87.17;101283.09;5012328;28;20030;-51
2023/04/26 09:15:10;;;;;;;33.90;7.65;;;;;;;11.01;88.04;101282.00;5011857;28;20462;-50
2023/04/26 09:17:40;;;;;;;25.30;6.47;;;;;;;11.04;87.53;101276.22;5012016;28;20042;-49
2023/04/26 09:20:21;;;;;;;35.25;7.03;;;;;;;11.01;87.81;101282.81;5011968;28;20033;-47
2023/04/26 09:22:50;;;;;;;26.90;6.45;;;;;;;10.95;87.72;101277.44;5011916;28;20036;-49
2023/04/26 09:25:19;;;;;;;34.80;7.30;;;;;;;11.00;87.96;101277.66;5011432;28;20046;-49
2023/04/26 09:27:45;;;;;;;32.58;6.75;;;;;;;11.00;88.26;101280.34;5021943;28;20039;-49
2023/04/26 09:30:19;;;;;;;31.98;6.30;;;;;;;11.07;88.31;101281.19;5031841;28;20029;-50
2023/04/26 09:33:05;;;;;;;21.63;6.20;;;;;;;11.02;88.28;101287.16;5031500;28;20029;-49
2023/04/26 09:35:32;;;;;;;;;;;;;;;11.16;87.41;101285.38;4992722;28;20106;-52
2023/04/26 09:38:15;;;;;;;38.65;7.07;;;;;;;11.07;87.66;101278.53;4992172;28;19918;-49
2023/04/26 09:40:46;;;;;;;34.00;6.07;;;;;;;11.13;87.31;101274.22;4992297;28;20073;-50
2023/04/26 09:43:14;;;;;;;32.38;6.57;;;;;;;11.12;87.47;101272.56;4992175;28;20022;-49
2023/04/26 09:45:54;;;;;;;35.00;6.78;;;;;;;11.03;87.86;101277.25;5028451;28;20036;-48
2023/04/26 09:48:29;;;;;;;25.77;6.70;;;;;;;10.85;88.77;101283.13;5031468;28;20213;-48
2023/04/26 09:50:58;;;;;;;23.52;6.25;;;;;;;10.81;89.32;101282.69;5025381;28;20096;-50
2023/04/26 09:53:33;;;;;;;29.55;5.97;;;;;;;10.81;89.26;101287.22;5015513;28;20026;-51
2023/04/26 09:56:12;;;;;;;27.67;6.10;;;;;;;10.83;89.08;101283.34;5015769;28;20120;-50
2023/04/26 09:58:49;;;;;;;21.60;6.13;;;;;;;10.97;88.30;101281.56;5015432;28;20041;-49
2023/04/26 10:01:17;;;;;;;28.10;5.90;;;;;;;11.00;87.78;101286.53;5022412;28;20032;-51
2023/04/26 10:03:43;;;;;;;29.30;6.50;;;;;;;10.83;88.33;101283.34;5034971;28;20025;-48
2023/04/26 10:06:11;;;;;;;26.33;7.00;;;;;;;10.92;88.35;101288.53;5035152;28;20029;-47
2023/04/26 10:08:38;;;;;;;26.20;6.93;;;;;;;10.88;88.58;101281.91;5020164;28;20486;-47
2023/04/26 10:11:11;;;;;;;28.63;7.65;;;;;;;11.03;88.71;101270.03;5015494;28;20039;-50
2023/04/26 10:13:40;;;;;;;28.25;6.80;;;;;;;11.06;88.26;101268.84;5015102;28;20644;-51
2023/04/26 10:16:08;;;;;;;25.02;6.63;;;;;;;10.96;89.16;101282.59;5015477;28;20032;-52
2023/04/26 10:18:35;;;;;;;35.10;6.82;;;;;;;10.95;89.44;101278.25;5023545;28;20091;-50
2023/04/26 10:21:21;;;;;;;36.10;7.05;;;;;;;11.00;89.31;101278.50;5035027;28;20025;-50
2023/04/26 10:23:49;;;;;;;43.72;7.65;;;;;;;11.03;89.48;101277.25;5034705;28;20033;-47
2023/04/26 10:26:54;;;;;;;33.60;7.90;;;;;;;11.04;89.27;101270.88;5014267;28;20129;-50
2023/04/26 10:29:21;;;;;;;29.00;6.50;;;;;;;11.01;89.34;101276.63;5015370;28;20033;-51
2023/04/26 10:32:03;;;;;;;31.25;7.90;;;;;;;11.02;89.73;101276.44;5015045;28;20079;-50
2023/04/26 10:34:31;;;;;;;35.80;7.35;;;;;;;11.06;89.71;101276.88;5014204;28;20034;-48
2023/04/26 10:37:10;;;;;;;32.72;6.97;;;;;;;11.06;89.70;101274.19;4995461;28;20026;-51
2023/04/26 10:39:38;;;;;;;33.85;7.15;;;;;;;11.15;89.26;101264.94;4995230;28;20073;-51
2023/04/26 10:42:23;;;;;;;28.65;6.35;;;;;;;11.08;89.47;101272.13;5005476;28;20038;-50
2023/04/26 10:44:50;;;;;;;35.50;7.40;;;;;;;11.07;89.61;101271.31;5014510;28;20080;-50
2023/04/26 10:47:35;;;;;;;22.90;5.78;;;;;;;11.17;89.23;101265.59;5020357;28;20344;-48
2023/04/26 10:50:11;;;;;;;28.70;6.23;;;;;;;11.08;89.91;101272.97;5024129;28;20049;-50
2023/04/26 10:52:59;;;;;;;37.15;7.15;;;;;;;11.13;89.61;101269.69;5012715;28;20021;-51
2023/04/26 10:55:39;;;;;;;34.13;7.43;;;;;;;11.19;89.39;101268.06;5005798;28;20107;-47
2023/04/26 10:58:28;;;;;;;28.05;6.40;;;;;;;11.19;88.86;101268.88;5014254;28;20041;-50
2023/04/26 11:01:19;;;;;;;30.55;7.03;;;;;;;11.29;88.52;101279.25;4997871;28;20386;-51
2023/04/26 11:03:58;;;;;;;28.63;7.32;;;;;;;11.12;89.27;101276.09;5014236;28;20515;-50
2023/04/26 11:06:28;;;;;;;29.65;6.72;;;;;;;11.15;88.96;101285.56;5014425;28;20041;-51
2023/04/26 11:08:54;;;;;;;33.88;6.82;;;;;;;11.16;88.59;101285.38;5015138;28;20025;-51
2023/04/26 11:11:25;;;;;;;28.60;5.93;;;;;;;11.10;88.95;101286.16;5015000;28;20022;-49
2023/04/26 11:13:52;;;;;;;30.00;7.18;;;;;;;11.07;88.99;101287.38;5014371;28;20034;-50
2023/04/26 11:16:18;;;;;;;27.23;7.13;;;;;;;11.00;89.45;101286.53;5014965;28;20041;-50
2023/04/26 11:18:46;;;;;;;18.80;6.43;;;;;;;11.04;88.99;101286.94;5014390;28;20496;-50
2023/04/26 11:21:16;;;;;;;20.67;6.63;;;;;;;11.02;88.58;101292.50;5014184;28;20034;-50